Time;durP1;ratioP1;P1;durP2;ratioP2;P2;SDS_P1;SDS_P2;PMS_P1;PMS_P2;Temp;Humidity;BMP_temperature;BMP_pressure;BME280_temperature;BME280_humidity;BME280_pressure;Samples;Min_cycle;Max_cycle;Signal;HPM_P1;HPM_P2
2023/01/08 00:01:53;;;;;;;1.27;0.50;;;;;;;8.60;91.50;100353.78;5058436;27;96793;-29
2023/01/08 00:04:19;;;;;;;0.50;0.30;;;;;;;8.56;92.09;100344.16;5057974;27;97887;-29
2023/01/08 00:06:44;;;;;;;0.40;0.40;;;;;;;8.61;92.07;100348.28;5058068;27;99151;-29
2023/01/08 00:09:10;;;;;;;0.75;0.40;;;;;;;8.59;92.27;100350.22;5056787;27;96736;-29
2023/01/08 00:11:36;;;;;;;0.57;0.35;;;;;;;8.65;92.21;100355.25;5058247;27;97011;-29
2023/01/08 00:14:01;;;;;;;0.68;0.50;;;;;;;8.70;91.88;100353.13;5056942;27;98880;-29
2023/01/08 00:16:27;;;;;;;2.03;0.70;;;;;;;8.71;92.04;100341.34;5057603;27;99300;-29
2023/01/08 00:18:52;;;;;;;0.30;0.30;;;;;;;8.68;92.15;100344.25;5058024;27;96696;-29
2023/01/08 00:21:18;;;;;;;10.30;1.08;;;;;;;8.71;91.69;100327.00;5057974;27;96789;-29
2023/01/08 00:23:43;;;;;;;0.73;0.65;;;;;;;8.74;92.01;100329.50;5057051;27;99205;-29
2023/01/08 00:26:10;;;;;;;3.47;0.90;;;;;;;8.76;91.80;100318.59;5057090;27;97738;-29
2023/01/08 00:28:36;;;;;;;0.95;0.65;;;;;;;8.76;91.99;100322.16;5057974;27;97204;-29
2023/01/08 00:31:03;;;;;;;5.45;1.23;;;;;;;8.75;92.06;100304.25;5056728;27;96742;-30
2023/01/08 00:33:29;;;;;;;1.33;0.70;;;;;;;8.80;92.17;100310.22;5055923;27;101128;-29
2023/01/08 00:35:54;;;;;;;1.92;1.02;;;;;;;8.83;92.22;100304.63;5057427;27;97944;-28
2023/01/08 00:38:24;;;;;;;1.13;0.60;;;;;;;8.83;92.01;100299.22;5057185;27;96577;-29
2023/01/08 00:40:50;;;;;;;0.98;0.65;;;;;;;8.84;92.08;100287.47;5056074;27;96775;-29
2023/01/08 00:43:15;;;;;;;2.38;1.00;;;;;;;8.88;92.65;100301.63;5056587;27;110330;-30
2023/01/08 00:45:41;;;;;;;2.78;0.95;;;;;;;8.89;92.56;100295.25;5057056;27;99068;-29
2023/01/08 00:48:06;;;;;;;1.00;0.52;;;;;;;8.88;92.06;100291.69;5057426;27;96530;-29
2023/01/08 00:50:31;;;;;;;1.05;0.70;;;;;;;8.93;92.05;100284.16;5057159;27;98731;-29
2023/01/08 00:52:57;;;;;;;1.33;0.68;;;;;;;8.93;91.75;100272.47;5056720;27;97858;-30
2023/01/08 00:55:22;;;;;;;2.65;0.63;;;;;;;8.97;91.72;100292.09;5057433;27;99478;-29
2023/01/08 00:57:47;;;;;;;3.72;1.42;;;;;;;8.97;91.61;100286.69;5056559;27;103706;-29
2023/01/08 01:00:14;;;;;;;1.40;0.82;;;;;;;8.97;91.69;100281.28;5057243;27;96787;-29
2023/01/08 01:02:40;;;;;;;1.15;0.57;;;;;;;8.94;91.44;100293.16;5055005;27;98927;-29
2023/01/08 01:05:07;;;;;;;1.00;0.60;;;;;;;8.91;91.33;100285.22;5055439;27;99774;-29
2023/01/08 01:07:33;;;;;;;0.80;0.50;;;;;;;8.85;90.98;100280.22;5055653;27;96695;-28
2023/01/08 01:09:59;;;;;;;0.57;0.30;;;;;;;8.83;90.63;100274.03;5057214;27;96740;-29
2023/01/08 01:12:24;;;;;;;0.38;0.25;;;;;;;8.83;90.64;100276.75;5056850;27;96724;-30
2023/01/08 01:14:49;;;;;;;0.70;0.30;;;;;;;8.78;90.51;100271.63;5056698;27;98777;-29
2023/01/08 01:17:15;;;;;;;0.75;0.30;;;;;;;8.76;90.48;100272.69;5057186;27;96643;-30
2023/01/08 01:19:40;;;;;;;0.82;0.60;;;;;;;8.74;90.40;100274.63;5057304;27;96874;-29
2023/01/08 01:22:05;;;;;;;0.43;0.17;;;;;;;8.71;90.66;100270.28;5056310;27;99196;-29
2023/01/08 01:24:31;;;;;;;0.57;0.35;;;;;;;8.66;90.74;100273.28;5056715;27;97305;-30
2023/01/08 01:26:56;;;;;;;0.52;0.32;;;;;;;8.65;90.89;100270.66;5056090;27;96711;-30
2023/01/08 01:29:22;;;;;;;2.35;0.25;;;;;;;8.60;91.07;100264.69;5057044;27;96778;-30
2023/01/08 01:31:48;;;;;;;2.83;0.60;;;;;;;8.58;90.76;100269.31;5055080;27;100853;-29
2023/01/08 01:34:13;;;;;;;0.80;0.43;;;;;;;8.58;91.27;100263.91;5056325;27;108050;-30
2023/01/08 01:36:38;;;;;;;1.25;0.43;;;;;;;8.59;90.88;100269.22;5056806;27;96495;-30
2023/01/08 01:39:04;;;;;;;0.50;0.30;;;;;;;8.57;90.68;100279.25;5056762;27;96804;-29
2023/01/08 01:41:29;;;;;;;0.68;0.32;;;;;;;8.58;90.94;100274.72;5056149;27;97628;-29
2023/01/08 01:43:57;;;;;;;0.10;0.10;;;;;;;8.53;90.70;100269.59;5056590;27;99317;-29
2023/01/08 01:46:33;;;;;;;2.15;0.45;;;;;;;8.53;90.84;100268.75;5055151;27;96582;-29
2023/01/08 01:49:04;;;;;;;0.40;0.22;;;;;;;8.54;91.24;100271.34;5056777;27;96799;-29
2023/01/08 01:51:32;;;;;;;0.20;0.20;;;;;;;8.54;90.71;100279.44;5054444;27;100783;-30
2023/01/08 01:54:01;;;;;;;0.57;0.35;;;;;;;8.53;90.69;100279.53;5054581;27;100757;-29
2023/01/08 01:56:28;;;;;;;1.83;0.47;;;;;;;8.51;90.73;100274.25;5055142;27;96660;-30
2023/01/08 01:58:53;;;;;;;0.35;0.35;;;;;;;8.53;90.73;100277.69;5056341;27;96805;-29
2023/01/08 02:01:19;;;;;;;0.40;0.28;;;;;;;8.54;90.75;100289.38;5054579;27;100973;-29
2023/01/08 02:03:44;;;;;;;0.00;0.00;;;;;;;8.48;90.47;100279.81;5056286;27;97089;-29
2023/01/08 02:06:19;;;;;;;1.20;0.40;;;;;;;8.54;90.22;100281.28;5055536;27;96487;-29
2023/01/08 02:08:56;;;;;;;1.50;0.43;;;;;;;8.54;89.96;100284.00;5056538;27;96811;-29
2023/01/08 02:11:36;;;;;;;0.20;0.20;;;;;;;8.52;89.89;100283.22;5055861;27;99677;-30
2023/01/08 02:14:34;;;;;;;0.63;0.28;;;;;;;8.54;89.88;100284.00;5056042;27;97448;-30
2023/01/08 02:17:05;;;;;;;2.13;0.60;;;;;;;8.55;89.56;100285.72;5055587;27;96643;-29
2023/01/08 02:19:33;;;;;;;0.35;0.17;;;;;;;8.56;89.62;100280.22;5056279;27;96556;-29
2023/01/08 02:22:28;;;;;;;2.97;0.40;;;;;;;8.57;89.05;100286.50;5055617;27;97792;-29
2023/01/08 02:25:01;;;;;;;3.88;0.20;;;;;;;8.56;88.97;100282.06;5054018;27;99988;-29
2023/01/08 02:27:30;;;;;;;2.10;0.28;;;;;;;8.56;89.42;100276.66;5054109;27;96838;-29
2023/01/08 02:29:56;;;;;;;1.00;0.50;;;;;;;8.55;89.08;100274.91;5054482;27;96619;-29
2023/01/08 02:32:26;;;;;;;0.30;0.20;;;;;;;8.57;88.97;100273.84;5054366;27;101214;-29
2023/01/08 02:34:53;;;;;;;4.85;0.38;;;;;;;8.56;88.31;100272.13;5054482;27;101762;-29
2023/01/08 02:37:19;;;;;;;0.17;0.17;;;;;;;8.58;88.69;100274.72;5054371;27;96532;-29
2023/01/08 02:40:05;;;;;;;1.10;0.35;;;;;;;8.56;87.86;100269.44;5055636;27;96715;-29
2023/01/08 02:42:30;;;;;;;0.80;0.35;;;;;;;8.56;87.96;100272.13;5053560;27;101299;-29
2023/01/08 02:45:35;;;;;;;1.38;0.38;;;;;;;8.53;87.29;100266.03;5055247;27;98931;-29
2023/01/08 02:48:11;;;;;;;1.55;0.35;;;;;;;8.52;87.05;100269.72;5055817;27;96437;-29
2023/01/08 02:50:42;;;;;;;0.52;0.30;;;;;;;8.52;87.23;100257.09;5054203;27;96652;-29
2023/01/08 02:53:16;;;;;;;4.80;0.73;;;;;;;8.54;87.17;100263.25;5053763;27;100756;-28
2023/01/08 02:55:45;;;;;;;0.57;0.35;;;;;;;8.53;87.38;100255.25;5055229;27;97760;-30
2023/01/08 02:58:12;;;;;;;3.97;0.22;;;;;;;8.49;86.68;100257.28;5055455;27;96458;-29
2023/01/08 03:00:40;;;;;;;0.65;0.40;;;;;;;8.50;86.80;100262.56;5054307;27;96863;-29
2023/01/08 03:03:14;;;;;;;0.47;0.10;;;;;;;8.48;86.78;100256.38;5053722;27;100661;-29
2023/01/08 03:05:42;;;;;;;3.30;0.52;;;;;;;8.52;87.02;100261.63;5055301;27;97885;-29
2023/01/08 03:08:10;;;;;;;3.00;0.50;;;;;;;8.53;86.85;100268.75;5053487;27;96715;-29
2023/01/08 03:10:40;;;;;;;0.68;0.35;;;;;;;8.52;87.27;100261.63;5053838;27;96831;-31
2023/01/08 03:13:23;;;;;;;0.88;0.45;;;;;;;8.48;86.51;100256.38;5053381;27;100755;-29
2023/01/08 03:15:57;;;;;;;0.50;0.30;;;;;;;8.48;86.52;100274.41;5053589;27;100849;-29
2023/01/08 03:18:34;;;;;;;1.73;0.28;;;;;;;8.46;86.26;100265.53;5055082;27;96484;-29
2023/01/08 03:21:03;;;;;;;0.20;0.10;;;;;;;8.46;86.34;100244.84;5053886;27;96819;-29
2023/01/08 03:23:34;;;;;;;0.82;0.52;;;;;;;8.48;86.58;100253.69;5053100;27;103356;-30
2023/01/08 03:26:01;;;;;;;0.77;0.30;;;;;;;8.47;86.61;100243.00;5053392;27;100850;-31
2023/01/08 03:28:32;;;;;;;4.38;0.43;;;;;;;8.48;86.63;100242.03;5053592;27;96552;-29
2023/01/08 03:30:58;;;;;;;0.30;0.27;;;;;;;8.47;86.96;100240.31;5053847;27;96787;-29
2023/01/08 03:33:25;;;;;;;1.08;0.40;;;;;;;8.46;86.45;100234.06;5052712;27;101284;-29
2023/01/08 03:35:54;;;;;;;0.75;0.52;;;;;;;8.44;86.78;100244.06;5053556;27;100756;-29
2023/01/08 03:38:34;;;;;;;0.10;0.10;;;;;;;8.44;86.61;100254.88;5053540;27;96605;-29
2023/01/08 03:41:07;;;;;;;1.83;0.47;;;;;;;8.42;86.96;100256.78;5053425;27;96876;-30
2023/01/08 03:43:33;;;;;;;0.57;0.15;;;;;;;8.43;86.79;100254.94;5053223;27;100094;-28
2023/01/08 03:46:02;;;;;;;0.88;0.28;;;;;;;8.41;86.00;100257.72;5054886;27;97426;-29
2023/01/08 03:48:29;;;;;;;2.67;0.40;;;;;;;8.40;86.60;100250.63;5053438;27;96481;-29
2023/01/08 03:50:55;;;;;;;0.95;0.13;;;;;;;8.38;86.58;100252.50;5053730;27;96878;-28
2023/01/08 03:53:20;;;;;;;0.03;0.00;;;;;;;8.38;86.50;100244.41;5054478;27;97391;-29
2023/01/08 03:55:46;;;;;;;1.50;0.35;;;;;;;8.33;86.25;100240.28;5054362;27;99124;-28
2023/01/08 03:58:11;;;;;;;0.47;0.20;;;;;;;8.30;86.27;100242.19;5053804;27;96474;-28
2023/01/08 04:00:36;;;;;;;0.28;0.10;;;;;;;8.29;86.10;100240.47;5054704;27;96742;-29
2023/01/08 04:03:02;;;;;;;1.58;0.63;;;;;;;8.24;86.05;100230.91;5054141;27;99156;-29
2023/01/08 04:05:27;;;;;;;4.30;0.57;;;;;;;8.21;86.33;100225.72;5054260;27;97354;-29
2023/01/08 04:07:56;;;;;;;1.27;0.38;;;;;;;8.21;86.28;100228.41;5054744;27;96570;-29
2023/01/08 04:10:23;;;;;;;0.77;0.38;;;;;;;8.19;86.51;100241.13;5053206;27;96993;-29
2023/01/08 04:12:48;;;;;;;0.10;0.10;;;;;;;8.19;86.83;100247.38;5054264;27;97481;-29
2023/01/08 04:15:13;;;;;;;3.30;0.10;;;;;;;8.20;87.13;100253.63;5054632;27;97465;-30
2023/01/08 04:17:39;;;;;;;1.40;0.30;;;;;;;8.16;87.15;100246.72;5054895;27;96436;-30
2023/01/08 04:20:05;;;;;;;2.45;0.55;;;;;;;8.15;87.04;100244.97;5054279;27;96746;-30
2023/01/08 04:22:30;;;;;;;0.47;0.40;;;;;;;8.14;87.32;100233.31;5053315;27;96786;-29
2023/01/08 04:24:55;;;;;;;1.08;0.40;;;;;;;8.18;87.68;100239.41;5054270;27;97330;-29
2023/01/08 04:27:21;;;;;;;6.80;0.45;;;;;;;8.16;87.67;100230.53;5053676;27;96770;-29
2023/01/08 04:29:46;;;;;;;0.28;0.28;;;;;;;8.15;87.64;100235.06;5057528;27;97298;-29
2023/01/08 04:32:11;;;;;;;1.10;0.57;;;;;;;8.11;87.77;100224.56;5057033;27;108297;-31
2023/01/08 04:34:37;;;;;;;3.42;0.50;;;;;;;8.12;87.95;100240.63;5057457;27;97266;-28
2023/01/08 04:37:02;;;;;;;4.20;0.60;;;;;;;8.13;88.11;100230.69;5057430;27;96594;-30
2023/01/08 04:39:28;;;;;;;0.65;0.52;;;;;;;8.08;88.13;100239.09;5057812;27;96621;-29
2023/01/08 04:41:53;;;;;;;1.08;0.50;;;;;;;8.06;88.51;100236.47;5055809;27;100543;-29
2023/01/08 04:44:19;;;;;;;0.50;0.20;;;;;;;8.02;88.82;100229.53;5055729;27;101041;-29
2023/01/08 04:46:44;;;;;;;0.55;0.30;;;;;;;7.99;88.88;100226.16;5057404;27;96454;-29
2023/01/08 04:49:11;;;;;;;1.35;0.73;;;;;;;7.97;89.12;100225.38;5057642;27;96864;-29
2023/01/08 04:51:37;;;;;;;0.57;0.30;;;;;;;7.95;89.13;100228.16;5055920;27;100875;-29
2023/01/08 04:54:02;;;;;;;0.20;0.20;;;;;;;7.97;89.17;100225.38;5057288;27;97260;-29
2023/01/08 04:56:28;;;;;;;1.63;0.40;;;;;;;7.96;89.27;100229.03;5057535;27;96438;-29
2023/01/08 04:58:53;;;;;;;1.20;0.40;;;;;;;7.91;88.94;100217.66;5057341;27;96812;-29
2023/01/08 05:01:21;;;;;;;3.50;0.28;;;;;;;7.91;89.13;100214.97;5056870;27;99422;-29
2023/01/08 05:03:47;;;;;;;1.88;0.43;;;;;;;7.88;89.16;100222.28;5055906;27;100950;-28
2023/01/08 05:06:12;;;;;;;0.50;0.25;;;;;;;7.84;89.37;100219.84;5055711;27;96570;-29
2023/01/08 05:08:38;;;;;;;0.65;0.45;;;;;;;7.85;89.43;100218.91;5057178;27;96808;-30
2023/01/08 05:11:03;;;;;;;1.02;0.40;;;;;;;7.82;89.34;100224.50;5056518;27;97387;-29
2023/01/08 05:13:29;;;;;;;1.27;0.32;;;;;;;7.78;89.48;100213.00;5056766;27;97699;-28
2023/01/08 05:15:59;;;;;;;2.90;0.28;;;;;;;7.76;89.50;100211.38;5055847;27;96550;-29
2023/01/08 05:18:24;;;;;;;0.43;0.20;;;;;;;7.74;89.42;100202.50;5055409;27;96807;-29
2023/01/08 05:20:50;;;;;;;1.58;0.30;;;;;;;7.75;89.62;100215.03;5056755;27;97439;-29
2023/01/08 05:23:15;;;;;;;1.23;0.30;;;;;;;7.75;89.64;100221.28;5056528;27;97798;-29
2023/01/08 05:25:40;;;;;;;0.98;0.43;;;;;;;7.72;89.67;100209.81;5057181;27;96457;-29
2023/01/08 05:28:06;;;;;;;0.22;0.22;;;;;;;7.71;89.83;100216.19;5056496;27;96693;-29
2023/01/08 05:30:31;;;;;;;0.90;0.25;;;;;;;7.69;89.77;100215.41;5056236;27;99505;-31
2023/01/08 05:32:56;;;;;;;1.80;0.88;;;;;;;7.66;89.75;100211.91;5056303;27;103019;-29
2023/01/08 05:35:21;;;;;;;0.63;0.28;;;;;;;7.64;89.97;100210.28;5056280;27;96625;-29
2023/01/08 05:37:47;;;;;;;6.68;0.68;;;;;;;7.65;89.67;100212.91;5056795;27;96753;-29
2023/01/08 05:40:12;;;;;;;0.93;0.50;;;;;;;7.67;89.80;100215.47;5054707;27;100836;-29
2023/01/08 05:42:37;;;;;;;2.78;0.50;;;;;;;7.67;89.67;100223.56;5056302;27;99100;-29
2023/01/08 05:45:04;;;;;;;1.23;0.38;;;;;;;7.62;89.69;100210.34;5056768;27;96644;-29
2023/01/08 05:47:31;;;;;;;2.88;0.47;;;;;;;7.61;89.86;100210.47;5055103;27;97016;-29
2023/01/08 05:49:56;;;;;;;1.30;0.70;;;;;;;7.63;90.03;100211.25;5054836;27;100690;-29
2023/01/08 05:52:21;;;;;;;1.33;0.70;;;;;;;7.61;89.86;100213.16;5056404;27;99076;-29
2023/01/08 05:54:47;;;;;;;1.60;0.90;;;;;;;7.61;90.18;100215.84;5056223;27;96656;-30
2023/01/08 05:57:12;;;;;;;0.75;0.32;;;;;;;7.61;90.04;100208.63;5056393;27;96744;-29
2023/01/08 05:59:37;;;;;;;0.52;0.30;;;;;;;7.61;90.12;100213.16;5055286;27;104082;-29
2023/01/08 06:02:02;;;;;;;8.73;0.80;;;;;;;7.60;90.26;100219.50;5055539;27;112996;-29
2023/01/08 06:04:28;;;;;;;0.30;0.20;;;;;;;7.55;90.26;100211.69;5056445;27;96574;-30
2023/01/08 06:06:53;;;;;;;2.15;0.52;;;;;;;7.52;90.37;100217.25;5056403;27;97150;-29
2023/01/08 06:09:18;;;;;;;0.85;0.20;;;;;;;7.52;90.31;100216.41;5055884;27;98895;-29
2023/01/08 06:11:44;;;;;;;1.15;0.35;;;;;;;7.53;90.17;100216.31;5055946;27;97218;-29
2023/01/08 06:14:09;;;;;;;0.10;0.10;;;;;;;7.53;90.23;100221.72;5055891;27;96629;-29
2023/01/08 06:16:34;;;;;;;1.77;0.38;;;;;;;7.52;89.65;100217.25;5056318;27;96735;-29
2023/01/08 06:19:00;;;;;;;6.30;0.47;;;;;;;7.52;89.68;100219.97;5055875;27;98554;-28
2023/01/08 06:21:25;;;;;;;1.33;0.45;;;;;;;7.50;89.38;100210.22;5055373;27;106166;-29
2023/01/08 06:23:50;;;;;;;1.50;0.68;;;;;;;7.50;89.29;100211.09;5055355;27;96469;-28
2023/01/08 06:26:16;;;;;;;0.70;0.47;;;;;;;7.48;88.99;100221.09;5055166;27;97568;-29
2023/01/08 06:28:41;;;;;;;0.77;0.28;;;;;;;7.44;88.71;100212.34;5055466;27;99448;-29
2023/01/08 06:31:06;;;;;;;6.10;0.63;;;;;;;7.50;88.89;100223.69;5055358;27;104260;-29
2023/01/08 06:33:32;;;;;;;1.27;0.45;;;;;;;7.47;88.88;100219.38;5056055;27;96548;-29
2023/01/08 06:36:03;;;;;;;1.23;0.35;;;;;;;7.43;88.24;100218.66;5055837;27;96732;-29
2023/01/08 06:38:33;;;;;;;1.07;0.50;;;;;;;7.43;88.57;100215.97;5053957;27;100845;-29
2023/01/08 06:41:05;;;;;;;1.80;0.50;;;;;;;7.40;88.23;100220.69;5055610;27;97860;-28
2023/01/08 06:43:31;;;;;;;;;;;;;;;7.40;88.19;100229.63;5055808;27;96449;-28
2023/01/08 06:45:57;;;;;;;0.32;0.22;;;;;;;7.33;87.98;100222.88;5055831;27;96855;-30
2023/01/08 06:48:23;;;;;;;0.08;0.03;;;;;;;7.31;87.89;100227.47;5054778;27;99328;-29
2023/01/08 06:50:48;;;;;;;1.50;0.30;;;;;;;7.33;88.00;100224.69;5053430;27;101301;-29
2023/01/08 06:53:13;;;;;;;0.85;0.32;;;;;;;7.32;88.14;100226.53;5055452;27;97212;-29
2023/01/08 06:55:39;;;;;;;0.77;0.30;;;;;;;7.27;88.07;100219.66;5054142;27;96890;-28
2023/01/08 06:58:04;;;;;;;0.63;0.25;;;;;;;7.28;87.78;100221.41;5054740;27;107329;-29
2023/01/08 07:00:29;;;;;;;6.10;0.47;;;;;;;7.26;87.65;100221.47;5054899;27;97331;-29
2023/01/08 07:02:55;;;;;;;0.20;0.20;;;;;;;7.23;87.59;100214.44;5055132;27;97548;-29
2023/01/08 07:05:21;;;;;;;1.27;0.30;;;;;;;7.23;87.42;100213.59;5055988;27;96757;-30
2023/01/08 07:07:46;;;;;;;1.33;0.57;;;;;;;7.25;87.79;100211.69;5053703;27;100755;-29
2023/01/08 07:10:12;;;;;;;2.15;0.32;;;;;;;7.21;87.63;100216.34;5055108;27;97347;-29
2023/01/08 07:12:37;;;;;;;3.28;0.32;;;;;;;7.18;87.52;100208.47;5054760;27;96427;-29
2023/01/08 07:15:03;;;;;;;6.05;0.30;;;;;;;7.15;87.52;100208.66;5055291;27;96725;-29
2023/01/08 07:17:30;;;;;;;0.43;0.30;;;;;;;7.13;87.44;100196.22;5053492;27;100506;-29
2023/01/08 07:19:56;;;;;;;1.50;0.40;;;;;;;7.13;87.77;100198.94;5053212;27;101162;-29
2023/01/08 07:22:23;;;;;;;0.43;0.28;;;;;;;7.13;87.82;100202.47;5054884;27;97190;-29
2023/01/08 07:24:48;;;;;;;1.25;0.68;;;;;;;7.11;87.77;100196.31;5053820;27;96890;-30
2023/01/08 07:27:13;;;;;;;4.55;0.70;;;;;;;7.10;87.62;100202.63;5054154;27;99308;-28
2023/01/08 07:29:39;;;;;;;0.22;0.20;;;;;;;7.10;88.00;100202.63;5055061;27;97812;-29
2023/01/08 07:32:04;;;;;;;1.77;0.50;;;;;;;7.04;87.93;100196.75;5055010;27;96605;-28
2023/01/08 07:34:29;;;;;;;0.98;0.45;;;;;;;7.01;87.87;100193.28;5055017;27;96638;-28
2023/01/08 07:36:55;;;;;;;0.82;0.40;;;;;;;7.02;87.93;100186.94;5054063;27;99158;-29
2023/01/08 07:39:20;;;;;;;0.25;0.10;;;;;;;6.97;87.71;100190.84;5054688;27;97289;-28
2023/01/08 07:41:46;;;;;;;0.17;0.10;;;;;;;7.00;88.20;100198.75;5054564;27;96558;-33
2023/01/08 07:44:11;;;;;;;1.08;0.17;;;;;;;6.97;87.94;100189.03;5054785;27;96756;-28
2023/01/08 07:46:36;;;;;;;0.00;0.00;;;;;;;6.94;87.96;100191.03;5054630;27;97827;-29
2023/01/08 07:49:02;;;;;;;0.95;0.63;;;;;;;6.94;87.89;100201.81;5053072;27;100824;-29
2023/01/08 07:51:28;;;;;;;0.32;0.30;;;;;;;6.90;87.99;100187.63;5054750;27;96438;-28
2023/01/08 07:53:55;;;;;;;0.47;0.38;;;;;;;6.94;88.07;100199.13;5053730;27;96826;-30
2023/01/08 07:56:20;;;;;;;3.00;0.30;;;;;;;6.93;88.11;100208.13;5053056;27;101348;-28
2023/01/08 07:58:46;;;;;;;2.45;0.57;;;;;;;6.91;88.12;100202.84;5054335;27;98143;-29
2023/01/08 08:01:11;;;;;;;1.35;0.60;;;;;;;6.89;88.41;100203.88;5054193;27;96574;-29
2023/01/08 08:03:38;;;;;;;0.50;0.20;;;;;;;6.89;88.68;100203.88;5056177;27;96824;-29
2023/01/08 08:06:03;;;;;;;0.88;0.40;;;;;;;6.87;88.48;100186.97;5056500;27;100801;-29
2023/01/08 08:08:29;;;;;;;0.10;0.10;;;;;;;6.90;88.61;100186.78;5057717;27;99233;-29
2023/01/08 08:10:54;;;;;;;0.32;0.20;;;;;;;6.89;88.49;100190.41;5058032;27;96486;-28
2023/01/08 08:13:19;;;;;;;0.45;0.13;;;;;;;6.88;88.59;100186.84;5057971;27;96775;-29
2023/01/08 08:15:45;;;;;;;0.45;0.20;;;;;;;6.90;88.45;100190.31;5057865;27;97446;-28
2023/01/08 08:18:10;;;;;;;1.98;0.38;;;;;;;6.88;88.70;100188.69;5058379;27;97318;-29
2023/01/08 08:20:37;;;;;;;3.72;0.73;;;;;;;6.89;88.65;100193.09;5058011;27;96545;-30
2023/01/08 08:23:08;;;;;;;0.30;0.20;;;;;;;6.86;88.86;100185.19;5056339;27;96847;-28
2023/01/08 08:25:34;;;;;;;3.43;0.27;;;;;;;6.85;88.90;100178.09;5055515;27;100781;-29
2023/01/08 08:28:00;;;;;;;7.78;0.30;;;;;;;6.84;88.87;100171.84;5055792;27;100860;-29
2023/01/08 08:30:27;;;;;;;0.95;0.40;;;;;;;6.78;88.87;100162.28;5056353;27;96557;-29
2023/01/08 08:32:54;;;;;;;0.95;0.43;;;;;;;6.81;89.15;100162.09;5056429;27;96595;-29
2023/01/08 08:35:20;;;;;;;1.55;0.43;;;;;;;6.79;89.06;100150.59;5055900;27;100327;-28
2023/01/08 08:37:46;;;;;;;1.75;0.68;;;;;;;6.84;88.89;100146.72;5055925;27;103000;-28
2023/01/08 08:40:11;;;;;;;0.10;0.10;;;;;;;6.84;89.17;100136.84;5057245;27;96601;-29
2023/01/08 08:42:37;;;;;;;0.30;0.17;;;;;;;6.83;89.32;100145.88;5056551;27;96795;-28
2023/01/08 08:45:03;;;;;;;2.45;0.38;;;;;;;6.83;89.19;100145.88;5057184;27;98828;-28
2023/01/08 08:47:28;;;;;;;0.40;0.30;;;;;;;6.83;89.24;100134.25;5055649;27;102258;-31
2023/01/08 08:49:53;;;;;;;2.38;0.30;;;;;;;6.88;89.31;100148.31;5057090;27;96453;-28
2023/01/08 08:52:19;;;;;;;0.45;0.20;;;;;;;6.91;89.08;100130.16;5057630;27;96775;-29
2023/01/08 08:54:44;;;;;;;5.15;0.60;;;;;;;6.90;89.13;100135.63;5056924;27;103994;-29
2023/01/08 08:57:09;;;;;;;2.10;0.75;;;;;;;6.95;89.28;100130.84;5057240;27;96833;-29
2023/01/08 08:59:35;;;;;;;2.42;0.68;;;;;;;6.97;89.22;100126.22;5057527;27;96562;-31
2023/01/08 09:02:00;;;;;;;2.38;0.38;;;;;;;6.97;89.35;100118.16;5057406;27;96724;-31
2023/01/08 09:04:29;;;;;;;0.03;0.00;;;;;;;6.97;89.48;100116.31;5057193;27;97175;-29
2023/01/08 09:06:55;;;;;;;4.57;0.20;;;;;;;6.99;89.55;100111.72;5055802;27;101119;-29
2023/01/08 09:09:20;;;;;;;0.45;0.30;;;;;;;7.04;89.56;100111.47;5057097;27;96602;-28
2023/01/08 09:11:45;;;;;;;1.55;1.00;;;;;;;7.06;89.36;100112.25;5056786;27;98887;-29
2023/01/08 09:14:11;;;;;;;1.10;0.50;;;;;;;7.06;89.57;100108.69;5055862;27;99853;-29
2023/01/08 09:16:36;;;;;;;0.00;0.00;;;;;;;7.09;89.51;100122.81;5056912;27;97901;-30
2023/01/08 09:19:02;;;;;;;0.20;0.10;;;;;;;7.10;89.87;100113.78;5056883;27;96438;-29
2023/01/08 09:21:27;;;;;;;4.60;0.45;;;;;;;7.12;89.27;100119.94;5055661;27;96761;-30
2023/01/08 09:23:53;;;;;;;0.82;0.15;;;;;;;7.18;89.25;100122.28;5056352;27;99222;-29
2023/01/08 09:26:18;;;;;;;1.58;0.73;;;;;;;7.20;89.12;100125.75;5055979;27;101467;-29
2023/01/08 09:28:43;;;;;;;6.43;0.60;;;;;;;7.22;89.12;100125.66;5056772;27;97328;-29
2023/01/08 09:31:09;;;;;;;1.92;0.40;;;;;;;7.29;89.18;100131.53;5057039;27;96752;-28
2023/01/08 09:33:34;;;;;;;0.57;0.35;;;;;;;7.31;89.14;100124.25;5056330;27;99522;-29
2023/01/08 09:35:59;;;;;;;0.63;0.38;;;;;;;7.36;88.95;100125.69;5056417;27;100321;-28
2023/01/08 09:38:25;;;;;;;0.95;0.40;;;;;;;7.42;88.78;100125.34;5056030;27;100084;-29
2023/01/08 09:40:57;;;;;;;1.35;0.47;;;;;;;7.47;88.91;100122.34;5056199;27;96910;-30
2023/01/08 09:43:23;;;;;;;;;;;;;;;7.56;88.56;100123.66;5055421;27;100882;-28
2023/01/08 09:45:55;;;;;;;1.38;0.38;;;;;;;7.59;88.22;100118.06;5056382;27;97864;-28
2023/01/08 09:48:28;;;;;;;0.00;0.00;;;;;;;7.72;88.26;100118.16;5055092;27;97205;-28
2023/01/08 09:50:54;;;;;;;2.55;0.60;;;;;;;7.84;88.13;100117.41;5055226;27;96787;-29
2023/01/08 09:53:19;;;;;;;2.72;0.32;;;;;;;7.92;87.99;100120.50;5056330;27;97225;-29
2023/01/08 09:56:00;;;;;;;0.08;0.03;;;;;;;8.00;87.33;100118.19;5056698;27;97819;-30
2023/01/08 09:58:38;;;;;;;5.95;0.50;;;;;;;8.07;87.12;100114.13;5056631;27;96562;-29
2023/01/08 10:01:05;;;;;;;1.23;0.50;;;;;;;8.16;86.84;100110.00;5054998;27;96801;-29
2023/01/08 10:03:39;;;;;;;0.30;0.20;;;;;;;8.21;86.31;100104.31;5053787;27;100903;-29
2023/01/08 10:06:13;;;;;;;6.97;0.65;;;;;;;8.34;86.26;100112.47;5054622;27;100930;-29
2023/01/08 10:08:39;;;;;;;1.48;0.68;;;;;;;8.46;85.75;100118.00;5054851;27;96644;-30
2023/01/08 10:11:05;;;;;;;2.92;0.40;;;;;;;8.49;85.17;100109.69;5056411;27;96975;-29
2023/01/08 10:13:33;;;;;;;2.60;1.08;;;;;;;8.62;85.32;100098.94;5054378;27;100747;-29
2023/01/08 10:15:59;;;;;;;1.45;0.60;;;;;;;8.73;84.56;100105.50;5054451;27;100959;-29
2023/01/08 10:18:26;;;;;;;1.50;0.70;;;;;;;8.74;84.26;100105.38;5056159;27;96508;-28
2023/01/08 10:20:52;;;;;;;1.05;0.47;;;;;;;8.84;84.05;100093.03;5054917;27;96804;-29
2023/01/08 10:23:20;;;;;;;1.38;0.47;;;;;;;8.89;83.97;100090.88;5055526;27;97539;-28
2023/01/08 10:25:53;;;;;;;4.70;0.82;;;;;;;9.08;83.46;100095.91;5053439;27;101331;-30
2023/01/08 10:28:29;;;;;;;1.60;0.70;;;;;;;9.22;82.46;100096.78;5055545;27;96487;-29
2023/01/08 10:31:07;;;;;;;0.88;0.55;;;;;;;9.30;82.56;100089.91;5054512;27;96805;-29
2023/01/08 10:33:42;;;;;;;2.70;0.22;;;;;;;9.25;82.46;100088.50;5054290;27;100900;-29
2023/01/08 10:36:10;;;;;;;0.85;0.40;;;;;;;9.42;83.00;100087.34;5054207;27;100677;-29
2023/01/08 10:38:41;;;;;;;4.90;0.90;;;;;;;9.36;82.27;100083.19;5054344;27;96691;-29
2023/01/08 10:41:12;;;;;;;5.38;1.23;;;;;;;9.32;82.15;100074.44;5053738;27;96699;-29
2023/01/08 10:43:52;;;;;;;0.75;0.35;;;;;;;9.54;81.34;100067.56;5053992;27;101317;-28
2023/01/08 10:46:27;;;;;;;0.88;0.32;;;;;;;9.73;79.75;100067.13;5055507;27;99178;-29
2023/01/08 10:48:56;;;;;;;1.70;0.57;;;;;;;10.05;78.02;100061.25;5054230;27;96537;-30
2023/01/08 10:51:30;;;;;;;0.38;0.25;;;;;;;10.12;78.68;100052.56;5054230;27;96820;-30
2023/01/08 10:54:00;;;;;;;0.55;0.17;;;;;;;9.98;78.15;100056.28;5054952;27;97981;-29
2023/01/08 10:56:30;;;;;;;1.00;0.40;;;;;;;10.12;78.41;100055.28;5055000;27;97440;-29
2023/01/08 10:58:56;;;;;;;1.23;0.52;;;;;;;10.17;77.88;100046.81;5055396;27;96595;-29
2023/01/08 11:01:25;;;;;;;0.55;0.30;;;;;;;10.44;77.86;100040.38;5054200;27;96880;-28
2023/01/08 11:03:53;;;;;;;1.98;0.50;;;;;;;10.54;75.69;100039.59;5053759;27;101091;-29
2023/01/08 11:06:22;;;;;;;2.20;0.50;;;;;;;10.60;75.57;100038.28;5053597;27;101233;-29
2023/01/08 11:08:53;;;;;;;0.32;0.20;;;;;;;10.59;74.71;100029.28;5053987;27;96592;-29
2023/01/08 11:11:19;;;;;;;1.05;0.40;;;;;;;10.51;76.56;100029.00;5055693;27;96761;-28
2023/01/08 11:14:02;;;;;;;2.25;0.63;;;;;;;10.53;75.66;100032.44;5053623;27;101260;-29
2023/01/08 11:16:38;;;;;;;0.20;0.20;;;;;;;10.50;74.45;100029.97;5053350;27;100909;-29
2023/01/08 11:19:13;;;;;;;0.68;0.50;;;;;;;10.33;74.53;100019.53;5053340;27;96856;-28
2023/01/08 11:21:38;;;;;;;0.28;0.08;;;;;;;10.07;75.84;100025.00;5053558;27;96726;-29
2023/01/08 11:24:21;;;;;;;1.10;0.45;;;;;;;9.94;76.70;100016.06;5054667;27;99231;-28
2023/01/08 11:27:06;;;;;;;4.78;0.30;;;;;;;9.86;75.78;100018.44;5054038;27;99429;-30
2023/01/08 11:29:53;;;;;;;8.23;0.68;;;;;;;9.67;77.35;100027.00;5053707;27;96603;-29
2023/01/08 11:32:53;;;;;;;0.35;0.28;;;;;;;9.68;77.14;100023.34;5054877;27;96651;-29
2023/01/08 11:35:27;;;;;;;0.55;0.30;;;;;;;9.60;77.80;100028.41;5054612;27;99480;-29